createdAt,value
2018-05-19T00:01:00.375Z,0
2018-05-19T00:02:00.020Z,0
2018-05-19T00:02:59.757Z,0
2018-05-19T00:03:59.748Z,0
2018-05-19T00:04:59.749Z,0
2018-05-19T00:06:00.031Z,0
2018-05-19T00:06:59.743Z,0
2018-05-19T00:08:00.268Z,0
2018-05-19T00:09:00.270Z,0
2018-05-19T00:10:00.341Z,0
2018-05-19T00:10:59.748Z,0
2018-05-19T00:11:59.735Z,0
2018-05-19T00:12:59.465Z,0
2018-05-19T00:13:59.733Z,0
2018-05-19T00:15:01.072Z,0
2018-05-19T00:15:59.794Z,0
2018-05-19T00:17:00.262Z,0
2018-05-19T00:17:59.978Z,0
2018-05-19T00:19:00.275Z,0
2018-05-19T00:19:59.977Z,0
2018-05-19T00:21:00.040Z,0
2018-05-19T00:21:59.714Z,0
2018-05-19T00:22:59.729Z,0
2018-05-19T00:23:59.981Z,0
2018-05-19T00:25:00.027Z,0
2018-05-19T00:26:00.253Z,0
2018-05-19T00:26:59.971Z,0
2018-05-19T00:27:59.191Z,0
2018-05-19T00:29:00.240Z,0
2018-05-19T00:29:59.450Z,0
2018-05-19T00:30:59.771Z,0
2018-05-19T00:31:59.959Z,0
2018-05-19T00:33:00.217Z,0
2018-05-19T00:33:59.164Z,0
2018-05-19T00:34:59.434Z,0
2018-05-19T00:36:00.247Z,0
2018-05-19T00:36:59.686Z,0
2018-05-19T00:37:59.932Z,0
2018-05-19T00:38:59.664Z,0
2018-05-19T00:39:59.738Z,0
2018-05-19T00:40:59.824Z,0
2018-05-19T00:41:59.952Z,0
2018-05-19T00:42:59.670Z,0
2018-05-19T00:43:59.667Z,0
2018-05-19T00:44:59.659Z,0
2018-05-19T00:45:59.755Z,0
2018-05-19T00:46:59.997Z,0
2018-05-19T00:47:59.955Z,0
2018-05-19T00:48:59.645Z,0
2018-05-19T00:49:59.935Z,0
2018-05-19T00:51:00.213Z,0
2018-05-19T00:51:59.123Z,0
2018-05-19T00:52:59.398Z,0
2018-05-19T00:53:59.672Z,0
2018-05-19T00:55:01.006Z,0
2018-05-19T00:55:59.648Z,0
2018-05-19T00:56:59.644Z,0
2018-05-19T00:57:59.909Z,0
2018-05-19T00:58:59.906Z,0
2018-05-19T00:59:59.359Z,0
2018-05-19T01:00:59.655Z,0
2018-05-19T01:01:59.888Z,0
2018-05-19T01:02:59.912Z,0
2018-05-19T01:03:59.620Z,0
2018-05-19T01:04:59.885Z,0
2018-05-19T01:05:59.435Z,0
2018-05-19T01:06:59.617Z,0
2018-05-19T01:07:59.876Z,0
2018-05-19T01:08:59.874Z,0
2018-05-19T01:09:59.916Z,0
2018-05-19T01:11:00.128Z,0
2018-05-19T01:11:59.885Z,0
2018-05-19T01:12:59.598Z,0
2018-05-19T01:13:59.874Z,0
2018-05-19T01:14:59.879Z,0
2018-05-19T01:15:59.664Z,0
2018-05-19T01:16:59.637Z,0
2018-05-19T01:17:59.884Z,0
2018-05-19T01:18:59.882Z,0
2018-05-19T01:19:59.884Z,0
2018-05-19T01:20:59.392Z,0
2018-05-19T01:21:59.579Z,0
2018-05-19T01:22:59.054Z,0
2018-05-19T01:24:00.090Z,0
2018-05-19T01:24:59.559Z,0
2018-05-19T01:25:59.890Z,0
2018-05-19T01:26:59.829Z,0
2018-05-19T01:27:59.572Z,0
2018-05-19T01:28:59.879Z,0
2018-05-19T01:30:00.077Z,0
2018-05-19T01:30:59.349Z,0
2018-05-19T01:31:59.829Z,0
2018-05-19T01:32:59.806Z,0
2018-05-19T01:33:59.798Z,0
2018-05-19T01:34:59.546Z,0
2018-05-19T01:35:59.291Z,0
2018-05-19T01:36:59.945Z,0
2018-05-19T01:37:59.525Z,0
2018-05-19T01:38:59.795Z,0
2018-05-19T01:40:00.260Z,0
2018-05-19T01:41:00.145Z,0
2018-05-19T01:41:59.529Z,0
2018-05-19T01:42:59.797Z,0
2018-05-19T01:43:59.524Z,0
2018-05-19T01:44:59.261Z,0
2018-05-19T01:45:59.572Z,0
2018-05-19T01:46:59.517Z,0
2018-05-19T01:47:59.767Z,0
2018-05-19T01:48:59.520Z,0
2018-05-19T01:49:59.760Z,0
2018-05-19T01:50:59.632Z,0
2018-05-19T01:51:59.502Z,0
2018-05-19T01:52:59.752Z,0
2018-05-19T01:53:59.760Z,0
2018-05-19T01:54:59.485Z,0
2018-05-19T01:55:59.228Z,0
2018-05-19T01:56:59.573Z,0
2018-05-19T01:57:59.741Z,0
2018-05-19T01:58:59.771Z,0
2018-05-19T01:59:59.472Z,0
2018-05-19T02:00:59.775Z,0
2018-05-19T02:01:59.207Z,0
2018-05-19T02:02:59.204Z,0
2018-05-19T02:03:59.477Z,0
2018-05-19T02:04:59.462Z,0
2018-05-19T02:05:59.451Z,0
2018-05-19T02:06:59.450Z,0
2018-05-19T02:07:59.736Z,0
2018-05-19T02:09:00.141Z,0
2018-05-19T02:09:59.430Z,0
2018-05-19T02:10:59.722Z,0
2018-05-19T02:11:59.168Z,0
2018-05-19T02:12:59.472Z,0
2018-05-19T02:13:59.423Z,0
2018-05-19T02:14:59.433Z,0
2018-05-19T02:15:59.169Z,0
2018-05-19T02:16:59.705Z,0
2018-05-19T02:17:59.153Z,0
2018-05-19T02:18:59.422Z,0
2018-05-19T02:19:59.164Z,0
2018-05-19T02:20:59.179Z,0
2018-05-19T02:21:59.947Z,0
2018-05-19T02:22:59.677Z,0
2018-05-19T02:23:59.683Z,0
2018-05-19T02:24:59.163Z,0
2018-05-19T02:25:59.934Z,0
2018-05-19T02:26:59.402Z,0
2018-05-19T02:27:59.132Z,0
2018-05-19T02:28:59.699Z,0
2018-05-19T02:29:59.390Z,0
2018-05-19T02:30:59.672Z,0
2018-05-19T02:31:59.396Z,0
2018-05-19T02:32:59.635Z,0
2018-05-19T02:33:59.390Z,0
2018-05-19T02:34:59.395Z,0
2018-05-19T02:35:59.900Z,0
2018-05-19T02:36:59.908Z,0
2018-05-19T02:37:59.630Z,0
2018-05-19T02:38:59.643Z,0
2018-05-19T02:39:59.626Z,0
2018-05-19T02:40:59.922Z,0
2018-05-19T02:41:59.362Z,0
2018-05-19T02:42:59.628Z,0
2018-05-19T02:43:59.868Z,0
2018-05-19T02:44:59.357Z,0
2018-05-19T02:45:59.657Z,0
2018-05-19T02:46:59.619Z,0
2018-05-19T02:47:59.365Z,0
2018-05-19T02:48:59.341Z,0
2018-05-19T02:49:59.883Z,0
2018-05-19T02:50:59.622Z,0
2018-05-19T02:51:59.119Z,0
2018-05-19T02:52:59.595Z,0
2018-05-19T02:53:59.321Z,0
2018-05-19T02:54:59.336Z,0
2018-05-19T02:55:59.609Z,0
2018-05-19T02:56:59.893Z,0
2018-05-19T02:57:59.313Z,0
2018-05-19T02:58:59.058Z,0
2018-05-19T02:59:59.041Z,0
2018-05-19T03:00:59.647Z,0
2018-05-19T03:01:59.566Z,0
2018-05-19T03:02:59.921Z,0
2018-05-19T03:03:59.589Z,0
2018-05-19T03:04:59.834Z,0
2018-05-19T03:05:59.646Z,0
2018-05-19T03:06:59.582Z,0
2018-05-19T03:07:59.317Z,0
2018-05-19T03:08:59.598Z,0
2018-05-19T03:09:59.828Z,0
2018-05-19T03:10:59.963Z,0
2018-05-19T03:11:59.530Z,0
2018-05-19T03:12:59.312Z,0
2018-05-19T03:13:59.536Z,0
2018-05-19T03:14:59.276Z,0
2018-05-19T03:15:59.109Z,0
2018-05-19T03:16:59.823Z,0
2018-05-19T03:17:59.531Z,0
2018-05-19T03:18:59.554Z,0
2018-05-19T03:19:59.526Z,0
2018-05-19T03:20:59.821Z,0
2018-05-19T03:21:59.261Z,0
2018-05-19T03:22:59.285Z,0
2018-05-19T03:23:58.991Z,0
2018-05-19T03:24:59.256Z,0
2018-05-19T03:25:58.980Z,0
2018-05-19T03:26:59.246Z,0
2018-05-19T03:27:59.499Z,0
2018-05-19T03:28:59.756Z,0
2018-05-19T03:29:59.494Z,0
2018-05-19T03:30:59.808Z,0
2018-05-19T03:31:59.493Z,0
2018-05-19T03:32:59.600Z,0
2018-05-19T03:33:59.500Z,0
2018-05-19T03:34:59.304Z,0
2018-05-19T03:36:00.036Z,0
2018-05-19T03:36:59.467Z,5
2018-05-19T03:37:59.464Z,5
2018-05-19T03:38:59.714Z,5
2018-05-19T03:39:59.464Z,5
2018-05-19T03:40:59.595Z,5
2018-05-19T03:41:59.801Z,5
2018-05-19T03:42:59.434Z,5
2018-05-19T03:43:59.181Z,5
2018-05-19T03:44:58.942Z,5
2018-05-19T03:45:59.246Z,5
2018-05-19T03:46:59.688Z,5
2018-05-19T03:47:59.160Z,5
2018-05-19T03:48:58.912Z,5
2018-05-19T03:49:59.160Z,5
2018-05-19T03:50:59.442Z,5
2018-05-19T03:51:59.168Z,10
2018-05-19T03:52:59.156Z,10
2018-05-19T03:53:59.836Z,10
2018-05-19T03:54:59.151Z,10
2018-05-19T03:56:01.041Z,10
2018-05-19T03:56:59.416Z,10
2018-05-19T03:57:59.153Z,10
2018-05-19T03:58:58.612Z,15
2018-05-19T03:59:59.704Z,15
2018-05-19T04:00:59.200Z,15
2018-05-19T04:01:59.646Z,15
2018-05-19T04:02:59.394Z,15
2018-05-19T04:03:59.127Z,20
2018-05-19T04:04:59.389Z,20
2018-05-19T04:05:59.118Z,20
2018-05-19T04:06:59.644Z,20
2018-05-19T04:07:59.376Z,20
2018-05-19T04:08:59.361Z,20
2018-05-19T04:09:59.631Z,20
2018-05-19T04:10:59.661Z,20
2018-05-19T04:11:59.111Z,20
2018-05-19T04:12:58.827Z,20
2018-05-19T04:13:59.425Z,20
2018-05-19T04:14:59.353Z,20
2018-05-19T04:15:59.627Z,25
2018-05-19T04:16:59.098Z,25
2018-05-19T04:17:59.623Z,25
2018-05-19T04:18:58.834Z,25
2018-05-19T04:19:59.349Z,25
2018-05-19T04:20:59.419Z,25
2018-05-19T04:21:59.120Z,25
2018-05-19T04:22:59.585Z,25
2018-05-19T04:23:59.331Z,25
2018-05-19T04:24:59.327Z,25
2018-05-19T04:25:59.056Z,25
2018-05-19T04:26:59.307Z,25
2018-05-19T04:27:59.413Z,25
2018-05-19T04:28:58.796Z,25
2018-05-19T04:29:59.304Z,25
2018-05-19T04:30:59.646Z,30
2018-05-19T04:31:59.294Z,30
2018-05-19T04:32:58.771Z,30
2018-05-19T04:33:58.769Z,30
2018-05-19T04:34:59.013Z,30
2018-05-19T04:35:59.277Z,35
2018-05-19T04:36:59.033Z,35
2018-05-19T04:37:59.555Z,40
2018-05-19T04:38:59.276Z,40
2018-05-19T04:39:59.409Z,40
2018-05-19T04:40:59.372Z,40
2018-05-19T04:41:59.279Z,40
2018-05-19T04:42:59.271Z,45
2018-05-19T04:43:59.281Z,45
2018-05-19T04:44:58.754Z,45
2018-05-19T04:45:58.745Z,50
2018-05-19T04:46:59.278Z,50
2018-05-19T04:47:59.253Z,55
2018-05-19T04:48:59.262Z,55
2018-05-19T04:49:59.501Z,60
2018-05-19T04:50:59.296Z,60
2018-05-19T04:51:59.334Z,65
2018-05-19T04:52:59.240Z,65
2018-05-19T04:53:58.718Z,65
2018-05-19T04:54:59.295Z,70
2018-05-19T04:56:00.658Z,70
2018-05-19T04:56:59.677Z,75
2018-05-19T04:57:59.233Z,75
2018-05-19T04:58:58.980Z,75
2018-05-19T04:59:59.472Z,75
2018-05-19T05:00:59.236Z,75
2018-05-19T05:01:59.233Z,75
2018-05-19T05:02:58.969Z,75
2018-05-19T05:03:59.637Z,80
2018-05-19T05:04:59.218Z,85
2018-05-19T05:05:59.271Z,90
2018-05-19T05:06:58.970Z,95
2018-05-19T05:07:59.290Z,100
2018-05-19T05:08:59.224Z,105
2018-05-19T05:09:59.472Z,105
2018-05-19T05:10:59.246Z,110
2018-05-19T05:11:58.936Z,120
2018-05-19T05:12:59.465Z,120
2018-05-19T05:13:59.651Z,125
2018-05-19T05:14:59.468Z,130
2018-05-19T05:15:59.189Z,135
2018-05-19T05:16:58.948Z,135
2018-05-19T05:17:59.209Z,145
2018-05-19T05:18:58.950Z,150
2018-05-19T05:19:58.946Z,155
2018-05-19T05:20:58.708Z,160
2018-05-19T05:21:58.655Z,165
2018-05-19T05:22:59.459Z,170
2018-05-19T05:23:58.976Z,175
2018-05-19T05:24:59.227Z,175
2018-05-19T05:25:59.462Z,180
2018-05-19T05:26:59.563Z,185
2018-05-19T05:27:58.915Z,190
2018-05-19T05:28:59.471Z,190
2018-05-19T05:29:59.485Z,195
2018-05-19T05:30:58.897Z,195
2018-05-19T05:31:58.910Z,195
2018-05-19T05:32:59.436Z,200
2018-05-19T05:33:58.924Z,205
2018-05-19T05:34:59.198Z,205
2018-05-19T05:35:59.908Z,200
2018-05-19T05:36:59.217Z,200
2018-05-19T05:37:58.899Z,195
2018-05-19T05:38:58.913Z,190
2018-05-19T05:39:58.907Z,190
2018-05-19T05:40:59.463Z,195
2018-05-19T05:41:58.908Z,200
2018-05-19T05:42:58.890Z,200
2018-05-19T05:43:59.423Z,200
2018-05-19T05:44:59.407Z,200
2018-05-19T05:45:59.170Z,210
2018-05-19T05:46:58.888Z,210
2018-05-19T05:47:59.170Z,210
2018-05-19T05:48:59.171Z,215
2018-05-19T05:49:59.218Z,220
2018-05-19T05:50:59.169Z,220
2018-05-19T05:51:59.430Z,225
2018-05-19T05:52:59.178Z,225
2018-05-19T05:53:58.891Z,225
2018-05-19T05:54:59.171Z,245
2018-05-19T05:55:59.233Z,245
2018-05-19T05:56:59.315Z,220
2018-05-19T05:57:58.636Z,220
2018-05-19T05:58:59.152Z,220
2018-05-19T05:59:59.674Z,220
2018-05-19T06:00:58.902Z,225
2018-05-19T06:01:59.161Z,230
2018-05-19T06:02:59.148Z,230
2018-05-19T06:03:59.141Z,230
2018-05-19T06:04:59.153Z,230
2018-05-19T06:05:59.420Z,215
2018-05-19T06:06:59.421Z,215
2018-05-19T06:07:58.904Z,220
2018-05-19T06:08:58.659Z,225
2018-05-19T06:09:58.903Z,225
2018-05-19T06:10:58.906Z,245
2018-05-19T06:11:58.763Z,245
2018-05-19T06:12:59.177Z,250
2018-05-19T06:13:58.367Z,300
2018-05-19T06:23:59.954Z,285
2018-05-19T06:25:00.073Z,295
2018-05-19T06:25:59.718Z,300
2018-05-19T06:26:59.683Z,270
2018-05-19T06:27:59.140Z,260
2018-05-19T06:28:59.680Z,255
2018-05-19T06:29:59.433Z,250
2018-05-19T06:30:59.936Z,250
2018-05-19T06:31:59.146Z,255
2018-05-19T06:32:59.942Z,265
2018-05-19T06:33:59.679Z,285
2018-05-19T06:34:59.925Z,300
2018-05-19T06:35:59.685Z,280
2018-05-19T06:36:59.185Z,260
2018-05-19T06:37:59.497Z,260
2018-05-19T06:38:59.510Z,265
2018-05-19T06:39:59.448Z,300
2018-05-19T06:40:59.956Z,280
2018-05-19T06:41:59.791Z,280
2018-05-19T06:42:59.170Z,275
2018-05-19T06:43:59.684Z,275
2018-05-19T06:44:59.678Z,275
2018-05-19T06:45:59.681Z,280
2018-05-19T06:46:59.702Z,285
2018-05-19T06:47:59.651Z,280
2018-05-19T06:48:59.447Z,280
2018-05-19T06:49:59.221Z,280
2018-05-19T06:50:59.709Z,280
2018-05-19T06:51:59.692Z,280
2018-05-19T06:52:59.448Z,290
2018-05-19T06:53:59.437Z,295
2018-05-19T06:54:59.200Z,290
2018-05-19T06:55:59.709Z,295
2018-05-19T06:56:59.428Z,300
2018-05-19T06:57:59.190Z,305
2018-05-19T06:59:02.740Z,360
2018-05-19T06:59:59.968Z,335
2018-05-19T07:00:59.447Z,330
2018-05-19T07:01:59.718Z,300
2018-05-19T07:02:58.926Z,330
2018-05-19T07:03:59.700Z,310
2018-05-19T07:04:59.463Z,295
2018-05-19T07:05:59.781Z,300
2018-05-19T07:06:59.465Z,360
2018-05-19T07:07:59.986Z,365
2018-05-19T07:08:59.735Z,380
2018-05-19T07:09:59.744Z,380
2018-05-19T07:10:59.747Z,380
2018-05-19T07:11:59.707Z,375
2018-05-19T07:12:59.473Z,340
2018-05-19T07:13:59.332Z,355
2018-05-19T07:15:00.130Z,370
2018-05-19T07:15:59.729Z,415
2018-05-19T07:16:59.238Z,425
2018-05-19T07:17:59.223Z,370
2018-05-19T07:18:59.725Z,445
2018-05-19T07:19:59.476Z,455
2018-05-19T07:20:59.743Z,460
2018-05-19T07:21:59.719Z,455
2018-05-19T07:22:59.747Z,430
2018-05-19T07:23:59.487Z,445
2018-05-19T07:24:59.262Z,425
2018-05-19T07:25:59.809Z,405
2018-05-19T07:27:00.047Z,380
2018-05-19T07:27:59.769Z,365
2018-05-19T07:29:01.827Z,320
2018-05-19T07:29:59.789Z,305
2018-05-19T07:30:59.245Z,300
2018-05-19T07:31:59.250Z,295
2018-05-19T07:32:59.528Z,295
2018-05-19T07:33:59.532Z,285
2018-05-19T07:34:59.808Z,285
2018-05-19T07:35:59.933Z,265
2018-05-19T07:37:00.040Z,255
2018-05-19T07:37:59.284Z,250
2018-05-19T07:38:59.561Z,245
2018-05-19T07:39:59.611Z,240
2018-05-19T07:40:59.570Z,240
2018-05-19T07:41:59.545Z,235
2018-05-19T07:42:59.837Z,235
2018-05-19T07:43:59.872Z,235
2018-05-19T07:44:59.823Z,235
2018-05-19T07:45:59.826Z,235
2018-05-19T07:47:00.090Z,240
2018-05-19T07:47:59.823Z,245
2018-05-19T07:48:59.848Z,245
2018-05-19T07:49:59.584Z,245
2018-05-19T07:51:00.304Z,250
2018-05-19T07:51:59.299Z,250
2018-05-19T07:52:59.844Z,255
2018-05-19T07:53:59.322Z,270
2018-05-19T07:55:00.096Z,275
2018-05-19T07:55:59.596Z,280
2018-05-19T07:56:59.573Z,285
2018-05-19T07:57:59.334Z,285
2018-05-19T07:58:59.639Z,305
2018-05-19T07:59:59.844Z,320
2018-05-19T08:00:59.335Z,370
2018-05-19T08:01:59.859Z,380
2018-05-19T08:02:59.638Z,385
2018-05-19T08:03:59.853Z,410
2018-05-19T08:04:59.879Z,390
2018-05-19T08:05:59.389Z,375
2018-05-19T08:06:59.630Z,385
2018-05-19T08:07:59.090Z,390
2018-05-19T08:08:59.608Z,400
2018-05-19T08:09:59.608Z,420
2018-05-19T08:11:00.026Z,425
2018-05-19T08:11:59.897Z,425
2018-05-19T08:12:59.925Z,420
2018-05-19T08:13:59.462Z,425
2018-05-19T08:14:59.646Z,410
2018-05-19T08:16:00.177Z,395
2018-05-19T08:16:59.943Z,380
2018-05-19T08:17:59.661Z,350
2018-05-19T08:18:59.642Z,345
2018-05-19T08:19:59.935Z,340
2018-05-19T08:20:59.998Z,350
2018-05-19T08:21:59.666Z,340
2018-05-19T08:22:59.661Z,355
2018-05-19T08:23:59.772Z,375
2018-05-19T08:24:59.997Z,365
2018-05-19T08:25:59.722Z,355
2018-05-19T08:26:59.704Z,360
2018-05-19T08:28:00.250Z,335
2018-05-19T08:29:00.557Z,325
2018-05-19T08:29:59.692Z,305
2018-05-19T08:31:00.233Z,305
2018-05-19T08:31:59.458Z,310
2018-05-19T08:32:59.720Z,360
2018-05-19T08:33:59.458Z,375
2018-05-19T08:34:59.987Z,370
2018-05-19T08:35:59.822Z,375
2018-05-19T08:36:59.494Z,375
2018-05-19T08:37:59.750Z,380
2018-05-19T08:38:59.706Z,385
2018-05-19T08:40:00.564Z,365
2018-05-19T08:41:00.025Z,355
2018-05-19T08:41:59.764Z,370
2018-05-19T08:42:59.771Z,340
2018-05-19T08:43:59.751Z,335
2018-05-19T08:44:59.557Z,330
2018-05-19T08:46:00.037Z,350
2018-05-19T08:46:59.523Z,355
2018-05-19T08:48:00.264Z,365
2018-05-19T08:49:00.326Z,370
2018-05-19T08:50:00.055Z,355
2018-05-19T08:50:59.533Z,345
2018-05-19T08:52:00.099Z,350
2018-05-19T08:52:59.823Z,370
2018-05-19T08:54:00.069Z,375
2018-05-19T08:54:59.811Z,380
2018-05-19T08:56:00.422Z,370
2018-05-19T08:56:59.817Z,325
2018-05-19T08:57:59.827Z,330
2018-05-19T08:58:59.845Z,355
2018-05-19T08:59:59.574Z,345
2018-05-19T09:01:00.148Z,335
2018-05-19T09:01:59.848Z,350
2018-05-19T09:02:59.595Z,355
2018-05-19T09:03:59.330Z,345
2018-05-19T09:04:59.590Z,320
2018-05-19T09:06:00.161Z,360
2018-05-19T09:07:00.140Z,370
2018-05-19T09:08:00.099Z,370
2018-05-19T09:08:59.895Z,335
2018-05-19T09:09:59.876Z,315
2018-05-19T09:11:00.486Z,305
2018-05-19T09:12:00.133Z,300
2018-05-19T09:13:00.491Z,295
2018-05-19T09:13:59.884Z,295
2018-05-19T09:15:00.497Z,300
2018-05-19T09:15:59.967Z,310
2018-05-19T09:17:00.426Z,315
2018-05-19T09:18:00.166Z,320
2018-05-19T09:19:00.222Z,335
2018-05-19T09:20:00.155Z,335
2018-05-19T09:20:59.957Z,330
2018-05-19T09:21:59.915Z,340
2018-05-19T09:22:59.384Z,335
2018-05-19T09:23:59.926Z,335
2018-05-19T09:25:00.520Z,345
2018-05-19T09:26:00.187Z,345
2018-05-19T09:26:59.913Z,350
2018-05-19T09:28:00.189Z,355
2018-05-19T09:28:59.938Z,365
2018-05-19T09:29:59.898Z,360
2018-05-19T09:31:00.307Z,365
2018-05-19T09:31:59.422Z,365
2018-05-19T09:32:59.944Z,375
2018-05-19T09:34:00.199Z,395
2018-05-19T09:35:00.198Z,415
2018-05-19T09:36:00.530Z,405
2018-05-19T09:36:59.957Z,415
2018-05-19T09:37:59.945Z,410
2018-05-19T09:38:59.963Z,420
2018-05-19T09:39:59.966Z,435
2018-05-19T09:41:00.013Z,445
2018-05-19T09:42:00.229Z,470
2018-05-19T09:43:00.509Z,465
2018-05-19T09:44:00.244Z,450
2018-05-19T09:45:00.288Z,430
2018-05-19T09:46:00.322Z,435
2018-05-19T09:46:59.978Z,410
2018-05-19T09:47:59.985Z,395
2018-05-19T09:48:59.730Z,385
2018-05-19T09:50:00.249Z,380
2018-05-19T09:50:59.806Z,375
2018-05-19T09:52:00.247Z,370
2018-05-19T09:53:00.578Z,365
2018-05-19T09:54:00.265Z,385
2018-05-19T09:55:00.008Z,360
2018-05-19T09:56:00.426Z,360
2018-05-19T09:57:00.544Z,350
2018-05-19T09:58:00.284Z,345
2018-05-19T09:58:59.769Z,335
2018-05-19T09:59:59.821Z,335
2018-05-19T10:01:00.109Z,325
2018-05-19T10:02:00.291Z,325
2018-05-19T10:03:00.295Z,325
2018-05-19T10:04:00.293Z,325
2018-05-19T10:05:01.014Z,330
2018-05-19T10:06:00.389Z,335
2018-05-19T10:07:00.305Z,340
2018-05-19T10:08:00.316Z,340
2018-05-19T10:09:00.053Z,340
2018-05-19T10:10:00.327Z,340
2018-05-19T10:11:00.394Z,340
2018-05-19T10:12:00.095Z,340
2018-05-19T10:13:00.588Z,340
2018-05-19T10:14:00.073Z,340
2018-05-19T10:15:00.373Z,340
2018-05-19T10:16:00.378Z,340
2018-05-19T10:17:00.082Z,340
2018-05-19T10:17:59.799Z,345
2018-05-19T10:19:00.604Z,355
2018-05-19T10:20:00.621Z,350
2018-05-19T10:21:00.386Z,345
2018-05-19T10:22:00.360Z,355
2018-05-19T10:53:25.245Z,335
2018-05-19T10:54:22.831Z,345
2018-05-19T10:55:23.279Z,350
2018-05-19T10:56:23.006Z,345
2018-05-19T10:57:22.758Z,345
2018-05-19T10:58:23.285Z,355
2018-05-19T10:59:23.023Z,345
2018-05-19T11:00:22.783Z,335
2018-05-19T11:01:23.283Z,335
2018-05-19T11:02:23.358Z,340
2018-05-19T11:03:23.309Z,355
2018-05-19T11:04:23.562Z,360
2018-05-19T11:05:23.291Z,365
2018-05-19T11:06:23.286Z,365
2018-05-19T11:07:23.536Z,360
2018-05-19T11:08:23.296Z,365
2018-05-19T11:09:23.565Z,365
2018-05-19T11:10:23.317Z,365
2018-05-19T11:11:23.585Z,360
2018-05-19T11:12:23.304Z,360
2018-05-19T11:13:23.316Z,365
2018-05-19T11:14:23.351Z,380
2018-05-19T11:15:23.436Z,385
2018-05-19T11:16:23.316Z,380
2018-05-19T11:17:23.203Z,385
2018-05-19T11:18:23.059Z,385
2018-05-19T11:19:22.542Z,380
2018-05-19T11:20:23.305Z,365
2018-05-19T11:21:23.383Z,355
2018-05-19T11:22:23.072Z,345
2018-05-19T11:23:24.856Z,355
2018-05-19T11:24:23.076Z,320
2018-05-19T11:25:23.501Z,315
2018-05-19T11:26:23.606Z,310
2018-05-19T11:27:22.827Z,305
2018-05-19T11:28:23.002Z,305
2018-05-19T11:29:23.343Z,300
2018-05-19T11:30:23.111Z,300
2018-05-19T11:31:23.356Z,300
2018-05-19T11:32:23.371Z,305
2018-05-19T11:33:23.380Z,310
2018-05-19T11:34:23.356Z,315
2018-05-19T11:35:23.369Z,325
2018-05-19T11:36:23.099Z,335
2018-05-19T11:37:23.119Z,340
2018-05-19T11:38:23.464Z,350
2018-05-19T11:39:23.384Z,355
2018-05-19T11:40:23.131Z,350
2018-05-19T11:41:23.132Z,335
2018-05-19T11:42:23.633Z,335
2018-05-19T11:43:24.185Z,340
2018-05-19T11:44:23.142Z,340
2018-05-19T11:45:23.421Z,335
2018-05-19T11:46:23.441Z,340
2018-05-19T11:47:23.661Z,335
2018-05-19T11:48:23.149Z,335
2018-05-19T11:49:23.421Z,330
2018-05-19T11:50:23.450Z,305
2018-05-19T11:51:23.174Z,310
2018-05-19T11:52:22.887Z,325
2018-05-19T11:53:23.742Z,325
2018-05-19T11:54:23.768Z,320
2018-05-19T11:55:23.423Z,325
2018-05-19T11:56:22.908Z,330
2018-05-19T11:57:23.456Z,335
2018-05-19T11:58:22.914Z,325
2018-05-19T11:59:23.453Z,325
2018-05-19T12:00:23.435Z,325
2018-05-19T12:01:23.698Z,325
2018-05-19T12:02:22.926Z,325
2018-05-19T12:03:22.943Z,325
2018-05-19T12:04:23.542Z,325
2018-05-19T12:05:22.935Z,320
2018-05-19T12:06:23.467Z,330
2018-05-19T12:07:23.455Z,320
2018-05-19T12:08:23.455Z,315
2018-05-19T12:09:23.191Z,310
2018-05-19T12:10:23.210Z,310
2018-05-19T12:11:23.297Z,310
2018-05-19T12:12:24.593Z,310
2018-05-19T12:13:23.210Z,310
2018-05-19T12:14:24.021Z,310
2018-05-19T12:15:23.229Z,305
2018-05-19T12:16:23.830Z,305
2018-05-19T12:17:23.219Z,300
2018-05-19T12:18:23.478Z,300
2018-05-19T12:19:23.568Z,305
2018-05-19T12:20:22.983Z,300
2018-05-19T12:21:23.508Z,300
2018-05-19T12:22:23.284Z,305
2018-05-19T12:23:23.510Z,295
2018-05-19T12:24:24.321Z,295
2018-05-19T12:25:23.265Z,295
2018-05-19T12:26:23.566Z,290
2018-05-19T12:27:23.619Z,285
2018-05-19T12:28:23.629Z,285
2018-05-19T12:29:23.008Z,280
2018-05-19T12:30:22.745Z,285
2018-05-19T12:31:23.540Z,285
2018-05-19T12:32:23.552Z,285
2018-05-19T12:33:23.542Z,280
2018-05-19T12:34:23.277Z,280
2018-05-19T12:35:23.543Z,280
2018-05-19T12:36:23.008Z,275
2018-05-19T12:37:23.555Z,275
2018-05-19T12:38:23.372Z,275
2018-05-19T12:39:23.635Z,275
2018-05-19T12:40:23.301Z,270
2018-05-19T12:41:23.075Z,270
2018-05-19T12:42:23.308Z,270
2018-05-19T12:43:23.326Z,270
2018-05-19T12:44:24.381Z,270
2018-05-19T12:45:23.654Z,270
2018-05-19T12:46:23.574Z,270
2018-05-19T12:47:23.582Z,270
2018-05-19T12:48:23.578Z,270
2018-05-19T12:49:23.316Z,270
2018-05-19T12:50:23.847Z,270
2018-05-19T12:51:23.592Z,270
2018-05-19T12:52:23.602Z,265
2018-05-19T12:53:23.404Z,260
2018-05-19T12:54:24.102Z,255
2018-05-19T12:55:23.345Z,260
2018-05-19T12:56:23.624Z,260
2018-05-19T12:57:23.600Z,265
2018-05-19T12:58:24.647Z,275
2018-05-19T12:59:23.341Z,280
2018-05-19T13:00:23.907Z,285
2018-05-19T13:01:23.081Z,285
2018-05-19T13:02:23.648Z,280
2018-05-19T13:03:23.378Z,280
2018-05-19T13:04:23.087Z,280
2018-05-19T13:05:23.681Z,280
2018-05-19T13:06:23.632Z,270
2018-05-19T13:07:23.910Z,255
2018-05-19T13:08:23.372Z,240
2018-05-19T13:09:23.389Z,240
2018-05-19T13:10:23.908Z,245
2018-05-19T13:11:23.669Z,255
2018-05-19T13:12:23.658Z,265
2018-05-19T13:13:23.919Z,275
2018-05-19T13:14:23.421Z,285
2018-05-19T13:15:23.136Z,290
2018-05-19T13:16:23.649Z,300
2018-05-19T13:17:23.672Z,300
2018-05-19T13:18:23.405Z,290
2018-05-19T13:19:23.748Z,285
2018-05-19T13:20:23.675Z,280
2018-05-19T13:21:23.423Z,280
2018-05-19T13:22:23.685Z,280
2018-05-19T13:23:23.681Z,280
2018-05-19T13:24:23.417Z,285
2018-05-19T13:25:26.102Z,290
2018-05-19T13:26:23.418Z,305
2018-05-19T13:27:23.434Z,295
2018-05-19T13:28:23.686Z,290
2018-05-19T13:29:23.695Z,295
2018-05-19T13:30:23.696Z,305
2018-05-19T13:31:23.980Z,325
2018-05-19T13:32:23.444Z,325
2018-05-19T13:33:23.474Z,315
2018-05-19T13:34:23.434Z,330
2018-05-19T13:35:23.729Z,320
2018-05-19T13:36:23.199Z,350
2018-05-19T13:37:23.724Z,355
2018-05-19T13:38:23.466Z,365
2018-05-19T13:39:24.008Z,360
2018-05-19T13:40:23.998Z,350
2018-05-19T13:41:24.126Z,350
2018-05-19T13:42:22.953Z,340
2018-05-19T13:43:23.487Z,325
2018-05-19T13:44:23.474Z,320
2018-05-19T13:45:23.747Z,315
2018-05-19T13:46:24.005Z,310
2018-05-19T13:47:23.544Z,300
2018-05-19T13:48:23.236Z,285
2018-05-19T13:49:23.482Z,265
2018-05-19T13:50:23.489Z,245
2018-05-19T13:51:23.785Z,235
2018-05-19T13:52:23.742Z,230
2018-05-19T13:53:23.766Z,225
2018-05-19T13:54:23.534Z,220
2018-05-19T13:55:23.799Z,220
2018-05-19T13:56:23.263Z,220
2018-05-19T13:57:24.074Z,230
2018-05-19T13:58:23.786Z,240
2018-05-19T13:59:23.892Z,245
2018-05-19T14:00:23.539Z,255
2018-05-19T14:01:23.274Z,260
2018-05-19T14:02:24.081Z,260
2018-05-19T14:03:23.537Z,265
2018-05-19T14:04:23.798Z,270
2018-05-19T14:05:24.380Z,270
2018-05-19T14:06:23.818Z,270
2018-05-19T14:07:23.561Z,275
2018-05-19T14:08:23.815Z,280
2018-05-19T14:09:23.851Z,285
2018-05-19T14:10:23.816Z,290
2018-05-19T14:11:23.824Z,295
2018-05-19T14:12:23.322Z,295
2018-05-19T14:13:23.304Z,300
2018-05-19T14:14:23.601Z,300
2018-05-19T14:15:23.319Z,305
2018-05-19T14:16:23.622Z,310
2018-05-19T14:17:23.353Z,310
2018-05-19T14:18:24.100Z,315
2018-05-19T14:19:23.336Z,320
2018-05-19T14:20:23.602Z,320
2018-05-19T14:21:23.612Z,320
2018-05-19T14:22:23.848Z,320
2018-05-19T14:23:23.924Z,320
2018-05-19T14:24:23.902Z,320
2018-05-19T14:25:23.877Z,320
2018-05-19T14:26:25.224Z,315
2018-05-19T14:27:23.629Z,315
2018-05-19T14:28:23.935Z,310
2018-05-19T14:29:23.372Z,305
2018-05-19T14:30:23.624Z,300
2018-05-19T14:31:23.626Z,300
2018-05-19T14:32:24.184Z,295
2018-05-19T14:33:24.163Z,295
2018-05-19T14:34:23.662Z,295
2018-05-19T14:35:23.914Z,290
2018-05-19T14:36:23.656Z,290
2018-05-19T14:37:23.911Z,290
2018-05-19T14:38:23.653Z,290
2018-05-19T14:39:23.938Z,290
2018-05-19T14:40:23.748Z,290
2018-05-19T14:41:23.663Z,290
2018-05-19T14:42:23.933Z,290
2018-05-19T14:43:23.676Z,290
2018-05-19T14:44:23.955Z,290